Time;durP1;ratioP1;P1;durP2;ratioP2;P2;SDS_P1;SDS_P2;PMS_P1;PMS_P2;Temp;Humidity;BMP_temperature;BMP_pressure;BME280_temperature;BME280_humidity;BME280_pressure;Samples;Min_cycle;Max_cycle;Signal;HPM_P1;HPM_P2
2020/12/11 00:00:51;;;;;;;22.85;13.25;;;4.10;94.80;;;;;;4983203;28;20078;-89
2020/12/11 06:03:58;;;;;;;29.67;15.70;;;1.50;97.90;;;;;;5191601;23;20344;-80
2020/12/11 06:06:26;;;;;;;25.92;14.93;;;1.50;97.80;;;;;;5037358;28;20292;-83
2020/12/11 08:22:20;;;;;;;31.05;16.08;;;0.80;99.20;;;;;;5604942;23;20050;-80
2020/12/11 08:24:47;;;;;;;29.65;15.35;;;0.80;99.00;;;;;;4996090;28;20066;-82
2020/12/11 08:30:08;;;;;;;31.92;15.88;;;0.80;99.20;;;;;;5609325;23;20029;-84
2020/12/11 08:32:36;;;;;;;31.92;16.63;;;0.80;99.30;;;;;;5044724;28;20060;-83
2020/12/11 11:00:58;;;;;;;24.33;13.97;;;4.40;94.20;;;;;;5243476;23;20308;-79
2020/12/11 11:03:27;;;;;;;27.73;14.73;;;4.50;93.90;;;;;;5050172;28;20073;-81
2020/12/11 11:05:54;;;;;;;23.67;13.38;;;4.50;93.60;;;;;;5031831;28;20050;-80
2020/12/11 11:08:22;;;;;;;25.77;14.68;;;4.60;93.40;;;;;;5046512;28;20041;-78
2020/12/11 11:10:49;;;;;;;24.63;14.15;;;4.60;93.50;;;;;;5048534;28;20049;-78
2020/12/11 11:13:24;;;;;;;24.85;14.77;;;4.60;93.20;;;;;;5036836;28;20030;-78
2020/12/11 11:15:52;;;;;;;25.50;14.43;;;4.60;93.40;;;;;;5051959;28;20050;-80
2020/12/11 11:18:30;;;;;;;23.92;13.55;;;4.60;92.90;;;;;;5050126;28;20091;-81
2020/12/11 11:21:10;;;;;;;23.63;13.68;;;4.40;93.40;;;;;;5048589;28;20091;-80
2020/12/11 11:23:52;;;;;;;22.67;13.52;;;4.50;93.40;;;;;;5049016;28;20069;-81
2020/12/11 11:26:36;;;;;;;23.40;13.98;;;4.40;93.30;;;;;;5029828;28;20045;-81
2020/12/11 11:29:03;;;;;;;26.38;14.45;;;4.50;93.50;;;;;;5048173;28;20406;-79
2020/12/11 11:31:30;;;;;;;25.15;14.20;;;4.50;93.30;;;;;;5044667;28;20049;-81
2020/12/11 11:34:01;;;;;;;24.88;13.90;;;4.50;93.40;;;;;;5045248;28;20087;-80
2020/12/11 11:36:28;;;;;;;23.38;12.95;;;4.60;93.20;;;;;;5030891;28;20045;-79
2020/12/11 11:38:55;;;;;;;24.75;13.95;;;4.60;93.10;;;;;;5049746;28;20076;-79
2020/12/11 11:46:48;;;;;;;24.75;13.48;;;4.80;93.00;;;;;;5034884;28;20060;-80
2020/12/11 11:49:19;;;;;;;24.15;14.18;;;4.90;93.10;;;;;;5052768;28;20053;-80
2020/12/11 11:51:52;;;;;;;26.67;14.02;;;4.90;92.90;;;;;;5055009;28;20101;-80
2020/12/11 11:54:19;;;;;;;24.15;14.60;;;5.00;92.80;;;;;;5058973;28;20076;-81
2020/12/11 12:02:25;;;;;;;23.35;13.20;;;5.10;92.90;;;;;;5083679;23;20053;-91
2020/12/11 12:04:53;;;;;;;24.02;13.63;;;5.10;92.90;;;;;;5020720;28;20050;-92
2020/12/11 12:07:20;;;;;;;22.08;13.93;;;5.10;92.70;;;;;;5039473;28;20057;-93
2020/12/11 12:09:47;;;;;;;22.13;12.32;;;5.20;92.90;;;;;;5021869;28;20101;-92
2020/12/11 12:12:14;;;;;;;23.20;13.40;;;5.20;92.80;;;;;;5039274;28;20150;-89
2020/12/11 12:14:42;;;;;;;23.23;13.48;;;5.30;92.70;;;;;;5037763;28;20766;-90
2020/12/11 12:17:09;;;;;;;24.63;13.93;;;5.40;92.80;;;;;;5038692;28;20060;-91
2020/12/11 12:19:39;;;;;;;25.40;14.65;;;5.60;92.80;;;;;;5038027;28;20083;-93
2020/12/11 12:30:16;;;;;;;20.70;11.98;;;5.40;91.80;;;;;;4997002;28;19938;-88
2020/12/11 12:33:05;;;;;;;23.35;13.00;;;5.30;92.00;;;;;;5037912;28;20069;-88
2020/12/11 12:35:41;;;;;;;24.00;13.55;;;5.20;92.30;;;;;;5040888;28;20410;-88
2020/12/11 12:38:13;;;;;;;25.27;13.55;;;5.20;92.50;;;;;;5040533;28;20045;-87
2020/12/11 12:43:24;;;;;;;25.05;14.27;;;5.00;92.80;;;;;;5533410;23;20049;-87
2020/12/11 12:45:51;;;;;;;24.38;13.80;;;4.90;93.00;;;;;;5016316;28;20042;-88
2020/12/11 12:48:18;;;;;;;25.15;14.70;;;4.70;93.40;;;;;;5017070;28;20097;-89
2020/12/11 12:50:45;;;;;;;26.08;14.30;;;4.70;93.30;;;;;;5019481;28;20073;-90
2020/12/11 12:53:13;;;;;;;24.55;14.30;;;4.70;93.70;;;;;;5015765;28;20473;-88
2020/12/11 12:55:44;;;;;;;27.33;15.10;;;4.60;93.70;;;;;;5016456;28;20137;-87
2020/12/11 12:58:13;;;;;;;25.48;14.45;;;4.60;94.10;;;;;;5013359;28;20381;-88
2020/12/11 13:03:48;;;;;;;24.95;14.15;;;4.50;94.60;;;;;;5005692;28;20042;-88
2020/12/11 13:06:15;;;;;;;25.30;13.93;;;4.60;94.40;;;;;;5020368;28;20108;-89
2020/12/11 13:08:43;;;;;;;29.20;15.20;;;4.60;94.60;;;;;;5015719;28;20136;-88
2020/12/11 13:11:11;;;;;;;25.65;15.18;;;4.60;94.70;;;;;;5015404;28;20113;-88
2020/12/11 13:13:38;;;;;;;23.35;13.18;;;4.70;94.50;;;;;;5015014;28;20595;-89
2020/12/11 13:16:05;;;;;;;27.73;14.50;;;4.60;94.50;;;;;;5015458;28;20566;-89
2020/12/11 13:18:32;;;;;;;26.27;15.02;;;4.70;94.50;;;;;;5015879;28;20145;-89
2020/12/11 13:21:03;;;;;;;22.40;14.05;;;4.70;94.40;;;;;;5014881;28;20555;-91
2020/12/11 13:26:32;;;;;;;24.52;14.15;;;4.60;94.40;;;;;;5001845;28;20046;-91
2020/12/11 13:28:59;;;;;;;24.73;14.13;;;4.60;94.50;;;;;;5013733;28;20054;-86
2020/12/11 13:31:25;;;;;;;26.65;14.95;;;4.70;94.50;;;;;;5015409;28;20049;-92
2020/12/11 13:33:52;;;;;;;24.50;14.13;;;4.70;94.50;;;;;;5016211;28;20077;-91
2020/12/11 13:36:19;;;;;;;23.30;14.18;;;4.70;94.70;;;;;;5016376;28;20141;-90
2020/12/11 13:38:45;;;;;;;25.75;14.32;;;4.60;94.90;;;;;;5016488;28;20096;-90
2020/12/11 13:41:13;;;;;;;25.02;13.75;;;4.60;95.00;;;;;;5016332;28;20107;-91
2020/12/11 13:43:40;;;;;;;23.38;13.88;;;4.70;95.00;;;;;;5013663;28;20054;-93
2020/12/11 13:46:06;;;;;;;26.20;14.45;;;4.60;95.00;;;;;;4997948;28;20571;-91
2020/12/11 13:48:33;;;;;;;23.70;14.25;;;4.60;95.10;;;;;;5015516;28;20104;-91
2020/12/11 13:50:59;;;;;;;24.77;14.32;;;4.70;94.90;;;;;;5015238;28;20158;-90
2020/12/11 13:53:26;;;;;;;25.67;14.23;;;4.70;95.00;;;;;;5015568;28;20137;-91
2020/12/11 13:55:53;;;;;;;24.70;14.15;;;4.80;94.90;;;;;;5014474;28;20045;-91
2020/12/11 13:58:20;;;;;;;22.30;13.25;;;4.80;95.00;;;;;;5015071;28;20085;-92
2020/12/11 14:00:47;;;;;;;24.80;14.95;;;4.80;95.20;;;;;;5015497;28;20141;-90
2020/12/11 14:03:13;;;;;;;25.55;15.20;;;4.80;95.20;;;;;;5014223;28;20128;-90
2020/12/11 14:05:40;;;;;;;24.92;14.18;;;4.90;95.10;;;;;;5013548;28;20042;-92
2020/12/11 14:08:07;;;;;;;22.85;13.60;;;4.90;95.00;;;;;;5014312;28;20120;-86
2020/12/11 14:10:34;;;;;;;21.67;13.55;;;5.00;94.60;;;;;;5010928;28;20143;-93
2020/12/11 14:13:01;;;;;;;23.65;14.18;;;5.10;94.60;;;;;;5014135;28;20050;-88
2020/12/11 14:15:28;;;;;;;24.10;14.27;;;5.10;94.30;;;;;;5014904;28;20133;-91
2020/12/11 14:18:17;;;;;;;23.15;13.57;;;5.00;94.50;;;;;;5012937;28;20565;-86
2020/12/11 14:23:40;;;;;;;24.48;14.10;;;4.90;95.10;;;;;;4976473;28;20050;-89
2020/12/11 14:26:09;;;;;;;22.17;13.20;;;4.90;95.40;;;;;;5003651;28;20057;-91
2020/12/11 14:28:36;;;;;;;19.55;11.95;;;4.90;96.00;;;;;;4986085;28;20053;-91
2020/12/11 14:31:04;;;;;;;16.23;9.75;;;4.80;95.00;;;;;;5017092;28;20073;-96
2020/12/11 14:33:31;;;;;;;16.20;8.55;;;4.60;93.70;;;;;;5017551;28;20061;-92
2020/12/11 14:35:57;;;;;;;13.77;8.05;;;4.60;92.80;;;;;;5015947;28;20483;-91
2020/12/11 14:38:58;;;;;;;14.05;7.88;;;4.70;92.60;;;;;;5014496;28;20141;-89
2020/12/11 14:41:21;;;;;;;12.57;7.25;;;4.70;92.00;;;;;;5018203;28;20061;-91
2020/12/11 14:43:48;;;;;;;11.45;6.75;;;4.50;91.70;;;;;;4971561;28;661132;-93
2020/12/11 14:46:20;;;;;;;12.70;7.25;;;4.50;91.20;;;;;;4994631;28;20548;-95
2020/12/11 14:48:47;;;;;;;11.75;6.60;;;4.40;90.50;;;;;;4996409;28;20104;-93
2020/12/11 14:51:14;;;;;;;11.18;6.85;;;4.50;90.20;;;;;;4999721;28;20042;-96
2020/12/11 14:53:41;;;;;;;25.40;10.40;;;4.50;89.40;;;;;;4997644;28;20078;-95
2020/12/11 14:56:08;;;;;;;11.57;6.60;;;4.60;95.60;;;;;;4995711;28;20070;-90
2020/12/11 14:58:35;;;;;;;12.80;6.60;;;4.70;90.00;;;;;;4994944;28;20042;-90
2020/12/11 15:01:01;;;;;;;12.55;7.25;;;4.70;89.30;;;;;;4994849;28;20567;-88
2020/12/11 15:03:29;;;;;;;11.02;6.50;;;4.60;88.00;;;;;;4994100;28;20093;-89
2020/12/11 15:05:57;;;;;;;10.55;6.18;;;4.60;87.00;;;;;;4994254;28;20133;-89
2020/12/11 15:08:24;;;;;;;12.95;6.55;;;5.00;86.60;;;;;;5002202;28;20045;-88
2020/12/11 15:10:50;;;;;;;13.25;7.50;;;4.70;86.20;;;;;;5002631;28;20057;-88
2020/12/11 15:13:17;;;;;;;15.05;8.05;;;4.90;85.00;;;;;;5008859;28;20085;-90
2020/12/11 15:15:44;;;;;;;11.10;6.70;;;4.90;85.60;;;;;;4996588;28;20464;-90
2020/12/11 15:18:10;;;;;;;13.93;7.47;;;4.90;84.40;;;;;;4995341;28;20077;-93
2020/12/11 15:20:38;;;;;;;12.93;6.72;;;5.00;88.50;;;;;;4983833;28;20130;-91
2020/12/11 15:23:05;;;;;;;10.30;6.32;;;5.10;85.70;;;;;;4995143;28;20556;-89
2020/12/11 15:25:31;;;;;;;10.48;6.43;;;5.20;84.40;;;;;;4994562;28;20551;-92
2020/12/11 15:27:58;;;;;;;11.10;6.53;;;5.10;82.80;;;;;;4987765;28;20453;-91
2020/12/11 15:30:25;;;;;;;11.52;6.50;;;5.20;83.40;;;;;;4975457;28;20057;-91
2020/12/11 15:32:51;;;;;;;10.60;6.85;;;5.20;83.30;;;;;;4974080;28;20054;-90
2020/12/11 15:35:18;;;;;;;10.55;6.40;;;5.20;83.80;;;;;;4991369;28;20412;-86
2020/12/11 15:37:46;;;;;;;10.63;6.38;;;5.20;82.60;;;;;;4993815;28;20047;-91
2020/12/11 15:40:13;;;;;;;10.80;6.53;;;5.30;83.00;;;;;;4993915;28;20043;-85
2020/12/11 15:42:40;;;;;;;11.85;6.80;;;5.20;84.70;;;;;;4998022;28;20093;-92
2020/12/11 15:45:06;;;;;;;12.70;6.85;;;5.20;85.20;;;;;;5014366;28;20120;-90
2020/12/11 15:47:33;;;;;;;10.60;6.20;;;5.10;85.60;;;;;;5014985;28;20069;-90
2020/12/11 15:50:00;;;;;;;11.15;6.60;;;4.90;86.00;;;;;;5017586;28;20129;-92
2020/12/11 15:52:26;;;;;;;11.77;6.88;;;4.80;86.90;;;;;;5020305;28;20122;-94
2020/12/11 15:54:57;;;;;;;10.25;6.10;;;4.90;87.20;;;;;;5007826;28;20054;-93
2020/12/11 15:57:24;;;;;;;10.73;5.80;;;4.90;85.80;;;;;;5006887;28;20499;-92
2020/12/11 15:59:50;;;;;;;10.73;5.75;;;5.10;85.40;;;;;;5025712;28;20140;-92
2020/12/11 16:02:17;;;;;;;10.32;6.30;;;5.10;85.10;;;;;;5019026;28;20096;-91
2020/12/11 16:04:44;;;;;;;9.80;5.65;;;5.20;86.20;;;;;;5018878;28;20491;-93
2020/12/11 16:07:11;;;;;;;9.68;5.60;;;5.30;85.20;;;;;;5017944;28;20084;-91
2020/12/11 16:09:37;;;;;;;10.13;6.07;;;5.30;84.00;;;;;;5019834;28;20058;-92
2020/12/11 16:12:05;;;;;;;9.48;5.85;;;5.40;84.40;;;;;;5019115;28;20042;-91
2020/12/11 16:14:32;;;;;;;10.32;6.05;;;5.40;84.50;;;;;;5018380;28;20108;-92
2020/12/11 16:17:02;;;;;;;9.80;5.80;;;5.40;84.80;;;;;;5020919;28;20412;-91
2020/12/11 16:19:29;;;;;;;9.38;5.88;;;5.50;85.00;;;;;;5020999;28;20091;-91
2020/12/11 16:21:56;;;;;;;8.68;4.97;;;5.40;86.60;;;;;;5019292;28;20133;-92
2020/12/11 16:24:23;;;;;;;9.30;5.25;;;5.50;84.00;;;;;;5022210;28;20398;-88
2020/12/11 16:26:50;;;;;;;8.25;4.32;;;5.30;84.50;;;;;;5018493;28;20415;-90
2020/12/11 16:29:18;;;;;;;8.43;3.90;;;5.30;84.50;;;;;;5019262;28;20058;-90
2020/12/11 16:31:50;;;;;;;8.05;4.30;;;5.10;86.50;;;;;;5001253;28;20045;-86
2020/12/11 16:34:19;;;;;;;7.22;4.13;;;5.10;88.50;;;;;;5016540;28;20050;-86
2020/12/11 16:36:49;;;;;;;8.77;4.55;;;5.10;89.10;;;;;;4999212;28;20054;-90
2020/12/11 16:39:17;;;;;;;7.25;3.90;;;5.20;89.60;;;;;;5018345;28;20053;-92
2020/12/11 16:41:46;;;;;;;7.93;4.05;;;5.30;89.80;;;;;;5018716;28;20472;-85
2020/12/11 16:44:17;;;;;;;7.95;4.28;;;5.40;89.90;;;;;;5000881;28;20125;-88
2020/12/11 16:46:52;;;;;;;7.95;4.47;;;5.50;90.40;;;;;;4983291;28;20050;-90
2020/12/11 16:49:27;;;;;;;7.53;3.95;;;5.60;90.90;;;;;;4980319;28;20053;-93
2020/12/11 16:51:55;;;;;;;8.23;4.53;;;5.60;91.30;;;;;;4999950;28;20050;-92
2020/12/11 16:54:22;;;;;;;7.40;4.18;;;5.60;91.40;;;;;;5001503;28;20077;-88
2020/12/11 16:56:50;;;;;;;6.97;4.30;;;5.50;91.40;;;;;;4999458;28;20137;-94
2020/12/11 16:59:20;;;;;;;7.63;4.38;;;5.50;91.60;;;;;;4999070;28;20423;-89
2020/12/11 17:01:53;;;;;;;6.55;4.13;;;5.60;91.70;;;;;;4998124;28;20063;-91
2020/12/11 17:04:39;;;;;;;7.75;4.20;;;5.50;92.00;;;;;;4983510;28;20050;-91
2020/12/11 17:07:08;;;;;;;8.15;4.38;;;5.50;92.00;;;;;;4998944;28;20129;-96
2020/12/11 17:09:39;;;;;;;7.30;3.83;;;5.50;92.20;;;;;;4993100;28;20481;-92
2020/12/11 17:12:06;;;;;;;7.47;4.10;;;5.50;92.30;;;;;;4989690;28;20074;-92
2020/12/11 17:14:33;;;;;;;8.38;4.20;;;5.40;92.60;;;;;;4968944;28;20138;-91
2020/12/11 17:17:05;;;;;;;7.72;4.28;;;5.50;92.50;;;;;;4978690;28;20518;-91
2020/12/11 17:19:33;;;;;;;8.20;4.40;;;5.60;92.50;;;;;;4991217;28;20488;-91
2020/12/11 17:22:05;;;;;;;8.73;4.55;;;5.50;92.30;;;;;;4997282;28;20491;-91
2020/12/11 17:24:32;;;;;;;8.02;4.75;;;5.40;92.30;;;;;;4995983;28;20051;-90
2020/12/11 17:27:01;;;;;;;8.13;4.43;;;5.40;92.50;;;;;;4997202;28;20050;-89
2020/12/11 17:29:28;;;;;;;8.52;4.50;;;5.40;92.70;;;;;;4996263;28;20505;-90
2020/12/11 17:34:57;;;;;;;7.93;4.57;;;5.40;92.70;;;;;;4937843;29;20051;-91
2020/12/11 17:37:24;;;;;;;7.40;3.90;;;5.50;93.00;;;;;;4957009;28;20053;-94
2020/12/11 17:39:53;;;;;;;7.43;4.25;;;5.50;92.90;;;;;;4997136;28;20411;-90
2020/12/11 17:42:20;;;;;;;8.27;4.30;;;5.50;93.00;;;;;;4998423;28;20083;-89
2020/12/11 17:44:48;;;;;;;8.20;4.53;;;5.50;93.10;;;;;;5016113;28;20060;-94
2020/12/11 17:47:17;;;;;;;8.70;4.40;;;5.40;93.30;;;;;;5001009;28;20050;-86
2020/12/11 17:49:46;;;;;;;7.63;4.28;;;5.50;93.50;;;;;;5003256;28;20080;-90
2020/12/11 17:52:14;;;;;;;8.73;4.65;;;5.50;93.40;;;;;;5016855;28;20042;-86
2020/12/11 17:54:41;;;;;;;8.35;4.28;;;5.50;93.50;;;;;;5017280;28;20050;-87
2020/12/11 17:57:07;;;;;;;7.38;4.07;;;5.50;93.40;;;;;;5016125;28;20078;-88
2020/12/11 17:59:34;;;;;;;6.88;3.92;;;5.60;93.30;;;;;;5015931;28;20081;-90
2020/12/11 18:02:01;;;;;;;7.53;4.00;;;5.70;93.50;;;;;;5015223;28;20042;-88
2020/12/11 18:04:27;;;;;;;7.15;4.05;;;5.60;93.10;;;;;;4998191;28;20081;-88
2020/12/11 18:06:54;;;;;;;7.32;4.15;;;5.70;92.90;;;;;;4997828;28;20092;-90
2020/12/11 18:09:23;;;;;;;8.40;4.57;;;5.80;93.00;;;;;;5014834;28;20132;-88
2020/12/11 18:11:50;;;;;;;7.75;4.20;;;5.70;92.90;;;;;;5015481;28;20112;-88
2020/12/11 18:14:18;;;;;;;9.02;4.82;;;5.70;92.80;;;;;;5017044;28;20092;-88
2020/12/11 18:16:49;;;;;;;8.82;5.00;;;5.70;92.50;;;;;;5014679;28;20056;-89
2020/12/11 18:19:17;;;;;;;10.50;5.63;;;5.90;92.50;;;;;;5014455;28;20081;-92
2020/12/11 18:21:48;;;;;;;9.10;4.75;;;5.80;92.30;;;;;;4998342;28;20096;-93
2020/12/11 18:24:17;;;;;;;8.57;4.95;;;5.70;92.40;;;;;;5014842;28;20056;-91
2020/12/11 18:26:46;;;;;;;8.07;4.30;;;5.80;92.30;;;;;;5015578;28;20061;-83
2020/12/11 18:29:14;;;;;;;8.13;4.50;;;5.80;92.40;;;;;;5015890;28;20513;-92
2020/12/11 18:31:47;;;;;;;8.63;4.80;;;5.90;92.50;;;;;;5015846;28;20470;-93
2020/12/11 18:34:13;;;;;;;10.48;5.20;;;5.80;92.30;;;;;;5016611;28;20046;-92
2020/12/11 18:36:41;;;;;;;9.20;4.85;;;5.80;92.30;;;;;;4997837;28;20049;-92
2020/12/11 18:39:07;;;;;;;9.10;4.72;;;5.80;92.40;;;;;;5014997;28;20046;-93
2020/12/11 18:41:34;;;;;;;10.85;5.45;;;5.90;92.80;;;;;;5016640;28;20049;-94
2020/12/11 18:44:02;;;;;;;9.10;5.32;;;5.90;92.40;;;;;;5002009;28;20058;-91
2020/12/11 18:46:29;;;;;;;8.60;5.30;;;5.90;92.40;;;;;;4997912;28;20089;-92
2020/12/11 18:48:56;;;;;;;9.73;5.45;;;6.00;92.50;;;;;;4997124;28;20081;-92
2020/12/11 18:51:22;;;;;;;9.45;5.40;;;6.00;92.10;;;;;;4995110;28;20156;-91
2020/12/11 18:53:52;;;;;;;11.73;6.82;;;6.10;91.90;;;;;;4995739;28;20089;-91
2020/12/11 18:56:29;;;;;;;10.45;6.38;;;6.20;91.90;;;;;;4997116;28;20148;-88
2020/12/11 18:58:56;;;;;;;10.10;5.65;;;6.30;91.80;;;;;;4996406;28;20112;-92
2020/12/11 19:01:26;;;;;;;10.30;5.75;;;6.30;91.60;;;;;;4995846;28;20046;-91
2020/12/11 19:03:53;;;;;;;9.80;5.57;;;6.00;91.60;;;;;;4996648;28;20051;-88
2020/12/11 19:06:19;;;;;;;8.88;5.30;;;6.00;91.80;;;;;;5001904;28;20488;-89
2020/12/11 19:08:46;;;;;;;10.15;5.70;;;5.90;92.00;;;;;;4999540;28;20043;-90
2020/12/11 19:11:13;;;;;;;9.85;5.50;;;5.80;92.10;;;;;;4996524;28;20511;-90
2020/12/11 19:13:39;;;;;;;10.77;6.13;;;5.70;92.20;;;;;;4996026;28;20082;-90
2020/12/11 19:16:14;;;;;;;11.75;6.40;;;5.50;92.50;;;;;;4995088;28;20137;-90
2020/12/11 19:18:42;;;;;;;;;;;5.60;92.70;;;;;;4975823;28;20090;-88
2020/12/11 19:21:10;;;;;;;9.40;5.40;;;5.40;92.90;;;;;;4991155;28;19949;-88
2020/12/11 19:23:37;;;;;;;9.93;5.80;;;5.30;93.50;;;;;;4995810;28;20141;-87
2020/12/11 19:26:06;;;;;;;9.68;5.47;;;5.40;93.30;;;;;;4997054;28;20488;-89
2020/12/11 19:28:33;;;;;;;13.38;7.28;;;5.50;93.20;;;;;;5002668;28;20111;-91
2020/12/11 19:30:59;;;;;;;9.80;5.75;;;5.70;92.90;;;;;;5007626;28;20089;-89
2020/12/11 19:33:26;;;;;;;10.32;5.93;;;5.70;92.80;;;;;;5000152;28;20050;-87
2020/12/11 19:35:54;;;;;;;10.90;6.07;;;5.70;92.70;;;;;;4998833;28;20043;-89
2020/12/11 19:38:20;;;;;;;9.40;5.65;;;5.80;92.70;;;;;;4997776;28;20081;-88
2020/12/11 19:40:47;;;;;;;8.82;5.22;;;5.90;92.40;;;;;;4998443;28;20577;-89
2020/12/11 19:43:14;;;;;;;9.60;5.93;;;5.90;92.50;;;;;;4997810;28;20137;-88
2020/12/11 19:45:40;;;;;;;9.98;5.85;;;5.90;92.30;;;;;;4997463;28;20058;-88
2020/12/11 19:48:07;;;;;;;9.55;5.82;;;6.00;92.30;;;;;;4997725;28;20138;-91
2020/12/11 19:50:33;;;;;;;10.35;5.88;;;6.00;92.20;;;;;;4996856;28;20133;-90
2020/12/11 19:53:01;;;;;;;9.10;5.28;;;6.10;92.50;;;;;;4997570;28;20134;-86
2020/12/11 19:55:28;;;;;;;9.32;5.20;;;6.10;92.20;;;;;;4996419;28;20085;-89
2020/12/11 19:57:55;;;;;;;8.98;4.97;;;6.20;92.20;;;;;;4996821;28;20104;-87
2020/12/11 20:00:22;;;;;;;10.60;5.65;;;6.20;92.20;;;;;;4997318;28;20070;-87
2020/12/11 20:02:48;;;;;;;9.55;5.57;;;6.20;92.20;;;;;;4996703;28;20137;-89
2020/12/11 20:05:15;;;;;;;10.57;5.65;;;6.30;92.10;;;;;;4997360;28;20078;-88
2020/12/11 20:10:36;;;;;;;9.15;5.47;;;6.20;92.10;;;;;;4996681;28;20129;-88
2020/12/11 20:13:03;;;;;;;10.73;6.00;;;6.10;92.30;;;;;;4996843;28;20163;-87
2020/12/11 20:15:30;;;;;;;10.15;6.32;;;5.90;92.60;;;;;;4997425;28;20054;-88
2020/12/11 20:17:57;;;;;;;9.85;5.68;;;5.70;93.60;;;;;;4996397;28;20082;-87
2020/12/11 20:20:24;;;;;;;10.90;6.28;;;5.50;93.90;;;;;;4996568;28;20501;-87
2020/12/11 20:22:50;;;;;;;11.05;6.75;;;5.30;94.00;;;;;;4995826;28;20495;-87
2020/12/11 20:25:17;;;;;;;9.57;5.93;;;5.40;94.10;;;;;;4996453;28;20133;-87
2020/12/11 20:27:45;;;;;;;11.60;5.97;;;5.30;94.10;;;;;;4995975;28;20054;-87
2020/12/11 20:30:11;;;;;;;11.27;6.22;;;5.40;94.20;;;;;;4995871;28;20089;-88
2020/12/11 20:32:38;;;;;;;9.07;5.63;;;5.50;94.00;;;;;;4996670;28;20483;-87
2020/12/11 20:35:05;;;;;;;10.13;5.85;;;5.50;94.10;;;;;;4995110;28;20559;-87
2020/12/11 20:37:31;;;;;;;12.25;6.60;;;5.60;93.80;;;;;;4996218;28;20054;-87
2020/12/11 20:39:58;;;;;;;10.45;5.78;;;5.60;93.80;;;;;;4996041;28;20465;-85
2020/12/11 20:42:25;;;;;;;10.80;6.05;;;5.70;93.60;;;;;;4997776;28;20073;-86
2020/12/11 20:44:53;;;;;;;11.73;6.90;;;5.80;93.50;;;;;;5015210;28;20478;-87
2020/12/11 20:47:19;;;;;;;10.55;6.25;;;5.80;93.40;;;;;;5015298;28;20050;-86
2020/12/11 20:49:46;;;;;;;10.05;6.05;;;5.90;93.30;;;;;;5015726;28;20128;-88
2020/12/11 20:52:13;;;;;;;18.77;9.95;;;5.90;93.30;;;;;;5014991;28;20141;-88
2020/12/11 20:54:39;;;;;;;12.98;7.50;;;5.80;93.40;;;;;;5015713;28;20470;-88
2020/12/11 20:57:06;;;;;;;11.52;6.43;;;5.90;93.60;;;;;;5015479;28;20046;-87
2020/12/11 20:59:34;;;;;;;10.93;5.65;;;5.80;93.50;;;;;;5015362;28;20058;-88
2020/12/11 21:02:01;;;;;;;9.48;5.43;;;5.90;93.30;;;;;;5015603;28;20133;-87
2020/12/11 21:04:28;;;;;;;9.77;5.40;;;5.90;93.30;;;;;;5014250;28;20057;-86
2020/12/11 21:06:55;;;;;;;9.80;5.93;;;5.90;93.40;;;;;;4999607;28;20165;-86
2020/12/11 21:09:23;;;;;;;9.63;5.28;;;6.00;93.50;;;;;;4995673;28;20046;-89
2020/12/11 21:11:50;;;;;;;9.23;5.15;;;6.10;93.50;;;;;;4995746;28;20149;-88
2020/12/11 21:14:17;;;;;;;10.05;5.15;;;6.10;93.50;;;;;;4995361;28;20520;-89
2020/12/11 21:16:43;;;;;;;9.73;5.43;;;5.90;93.50;;;;;;5003052;28;20085;-92
2020/12/11 21:19:11;;;;;;;9.93;5.60;;;5.90;93.60;;;;;;5002620;28;20483;-91
2020/12/11 21:21:38;;;;;;;11.15;5.70;;;5.90;93.50;;;;;;4997504;28;20046;-89
2020/12/11 21:24:05;;;;;;;10.60;5.30;;;6.00;93.30;;;;;;5014722;28;20077;-87
2020/12/11 21:26:31;;;;;;;10.45;5.80;;;6.00;93.40;;;;;;5001111;28;20409;-87
2020/12/11 21:28:58;;;;;;;9.90;5.75;;;6.10;93.30;;;;;;4995556;28;20085;-87
2020/12/11 21:31:25;;;;;;;9.70;5.18;;;6.10;93.40;;;;;;5009405;28;20046;-88
2020/12/11 21:36:38;;;;;;;9.27;5.35;;;6.00;93.80;;;;;;5014680;28;20129;-87
2020/12/11 21:39:04;;;;;;;8.60;5.40;;;5.90;93.90;;;;;;5014662;28;20074;-87
2020/12/11 21:41:31;;;;;;;8.52;5.18;;;5.90;94.20;;;;;;5014876;28;20542;-87
2020/12/11 21:43:58;;;;;;;8.18;4.88;;;5.90;94.60;;;;;;5000088;28;20058;-87
2020/12/11 21:46:26;;;;;;;7.40;4.70;;;5.80;94.60;;;;;;4994401;28;20082;-87
2020/12/11 21:48:53;;;;;;;10.07;5.57;;;5.70;94.80;;;;;;4994963;28;20575;-87
2020/12/11 21:51:26;;;;;;;8.70;5.20;;;5.70;94.90;;;;;;4994957;28;20050;-87
2020/12/11 21:53:54;;;;;;;9.73;5.47;;;5.70;94.90;;;;;;4995347;28;20046;-87
2020/12/11 21:56:21;;;;;;;9.75;5.93;;;5.70;94.90;;;;;;4995008;28;20089;-87
2020/12/11 21:58:47;;;;;;;9.80;5.53;;;5.60;94.70;;;;;;4994101;28;20078;-87
2020/12/11 22:01:14;;;;;;;9.38;5.43;;;5.70;94.70;;;;;;4994069;28;20085;-87
2020/12/11 22:03:42;;;;;;;8.07;4.82;;;5.90;95.10;;;;;;4994706;28;20072;-88
2020/12/11 22:06:08;;;;;;;9.63;5.90;;;5.80;95.50;;;;;;4994345;28;20066;-88
2020/12/11 22:08:38;;;;;;;12.63;7.07;;;5.70;95.70;;;;;;4995165;28;20084;-88
2020/12/11 22:11:06;;;;;;;11.50;6.65;;;5.60;96.20;;;;;;4994430;28;20132;-88
2020/12/11 22:13:32;;;;;;;12.98;7.50;;;5.70;96.50;;;;;;4994388;28;20145;-88
2020/12/11 22:15:59;;;;;;;10.60;6.68;;;5.80;96.70;;;;;;4995118;28;20133;-87
2020/12/11 22:18:25;;;;;;;13.27;7.10;;;5.80;96.30;;;;;;4994522;28;20062;-88
2020/12/11 22:20:52;;;;;;;13.02;6.78;;;5.80;96.30;;;;;;4993648;28;20110;-86
2020/12/11 22:23:22;;;;;;;10.60;6.25;;;5.80;96.50;;;;;;4994211;28;20145;-87
2020/12/11 22:25:51;;;;;;;10.23;5.88;;;5.80;96.70;;;;;;4977687;28;20050;-89
2020/12/11 22:28:19;;;;;;;10.48;5.55;;;5.70;96.80;;;;;;4994102;28;20141;-88
2020/12/11 22:30:45;;;;;;;9.82;5.80;;;5.70;96.80;;;;;;4994018;28;20420;-86
2020/12/11 22:33:13;;;;;;;12.27;6.47;;;5.60;96.30;;;;;;4994297;28;20439;-87
2020/12/11 22:35:40;;;;;;;12.43;7.30;;;5.70;96.20;;;;;;4994228;28;20050;-90
2020/12/11 22:38:07;;;;;;;11.02;6.35;;;5.80;96.00;;;;;;4994264;28;20058;-89
2020/12/11 22:40:34;;;;;;;12.20;6.93;;;5.60;95.90;;;;;;4993768;28;20081;-91
2020/12/11 22:43:01;;;;;;;11.00;6.32;;;5.70;95.90;;;;;;4993809;28;20108;-89
2020/12/11 22:45:29;;;;;;;10.95;6.10;;;5.80;95.70;;;;;;4993609;28;20058;-88
2020/12/11 22:47:56;;;;;;;11.63;6.38;;;5.90;95.70;;;;;;4993658;28;20085;-88
2020/12/11 22:50:25;;;;;;;11.85;6.28;;;5.90;95.40;;;;;;4994041;28;20457;-87
2020/12/11 22:52:53;;;;;;;10.60;5.75;;;5.90;95.20;;;;;;4993622;28;20073;-91
2020/12/11 22:55:20;;;;;;;11.38;6.55;;;5.90;95.20;;;;;;4993855;28;20141;-88
2020/12/11 22:57:47;;;;;;;10.73;5.93;;;6.00;95.30;;;;;;4997282;28;20137;-87
2020/12/11 23:00:14;;;;;;;10.43;6.32;;;6.00;95.30;;;;;;5000373;28;20141;-89
2020/12/11 23:02:45;;;;;;;10.57;6.13;;;5.90;95.30;;;;;;5002092;28;20129;-89
2020/12/11 23:05:12;;;;;;;13.82;7.45;;;5.90;95.60;;;;;;5001491;28;20129;-91
2020/12/11 23:07:39;;;;;;;12.27;6.47;;;5.80;96.60;;;;;;5000642;28;20052;-91
2020/12/11 23:10:07;;;;;;;13.00;7.38;;;5.60;97.30;;;;;;5000777;28;20088;-92
2020/12/11 23:12:34;;;;;;;10.68;6.30;;;5.40;97.00;;;;;;5000454;28;20137;-90
2020/12/11 23:15:01;;;;;;;11.23;6.53;;;5.40;96.90;;;;;;5000952;28;20481;-89
2020/12/11 23:17:28;;;;;;;11.18;6.35;;;5.50;96.90;;;;;;4966962;28;20043;-90
2020/12/11 23:19:56;;;;;;;11.90;6.07;;;5.40;97.30;;;;;;4983142;28;20137;-91
2020/12/11 23:22:22;;;;;;;11.82;6.18;;;5.40;97.40;;;;;;5000242;28;20133;-91
2020/12/11 23:24:49;;;;;;;9.15;5.55;;;5.30;97.70;;;;;;5000127;28;20077;-91
2020/12/11 23:27:17;;;;;;;12.02;6.82;;;5.10;97.70;;;;;;4983241;28;20137;-90
2020/12/11 23:29:45;;;;;;;11.38;6.50;;;5.10;97.50;;;;;;5000493;28;20104;-89
2020/12/11 23:32:11;;;;;;;13.25;6.70;;;5.20;97.90;;;;;;5000129;28;20070;-90
2020/12/11 23:34:38;;;;;;;11.02;5.68;;;5.10;98.10;;;;;;5000173;28;20129;-91
2020/12/11 23:37:06;;;;;;;11.50;6.32;;;5.00;98.10;;;;;;4981735;28;20133;-90
2020/12/11 23:39:34;;;;;;;13.95;7.03;;;4.90;98.20;;;;;;4999930;28;20459;-91
2020/12/11 23:42:01;;;;;;;13.02;7.07;;;5.00;98.50;;;;;;5000205;28;20412;-91
2020/12/11 23:44:28;;;;;;;13.95;7.43;;;4.90;98.30;;;;;;5000055;28;20062;-91
2020/12/11 23:46:55;;;;;;;12.95;6.40;;;4.90;98.20;;;;;;4999985;28;20085;-90
2020/12/11 23:49:21;;;;;;;11.10;5.95;;;4.90;98.10;;;;;;4982439;28;20125;-91
